createdAt,value
2022-09-17T00:02:01.355Z,8.90
2022-09-17T00:04:28.157Z,8.80
2022-09-17T00:07:04.910Z,8.80
2022-09-17T00:09:31.725Z,8.70
2022-09-17T00:12:08.003Z,8.80
2022-09-17T00:14:43.026Z,8.80
2022-09-17T00:17:10.171Z,8.80
2022-09-17T00:19:51.198Z,8.90
2022-09-17T00:22:18.635Z,9.00
2022-09-17T00:24:45.707Z,9.00
2022-09-17T00:27:22.518Z,9.10
2022-09-17T00:30:03.963Z,9.10
2022-09-17T00:32:31.647Z,9.10
2022-09-17T00:35:01.239Z,9.10
2022-09-17T00:37:29.064Z,9.10
2022-09-17T00:39:56.426Z,9.10
2022-09-17T00:42:30.258Z,9.10
2022-09-17T00:44:57.909Z,9.20
2022-09-17T00:47:54.870Z,9.10
2022-09-17T00:50:41.801Z,9.10
2022-09-17T00:53:17.540Z,9.10
2022-09-17T00:55:51.492Z,9.10
2022-09-17T00:58:24.844Z,9.10
2022-09-17T01:00:52.096Z,9.10
2022-09-17T01:03:20.424Z,9.10
2022-09-17T01:06:18.713Z,8.90
2022-09-17T01:09:10.140Z,8.90
2022-09-17T01:12:14.213Z,8.80
2022-09-17T01:15:04.840Z,9.00
2022-09-17T01:17:57.963Z,8.90
2022-09-17T01:20:55.562Z,8.90
2022-09-17T01:23:41.234Z,8.90
2022-09-17T01:26:50.758Z,9.00
2022-09-17T01:29:48.608Z,8.90
2022-09-17T01:32:37.522Z,9.00
2022-09-17T01:35:26.626Z,8.90
2022-09-17T01:38:18.569Z,8.90
2022-09-17T01:40:56.179Z,8.90
2022-09-17T01:44:00.122Z,8.90
2022-09-17T01:46:34.144Z,8.90
2022-09-17T01:52:49.215Z,9.00
2022-09-17T01:55:18.223Z,8.90
2022-09-17T01:57:56.861Z,8.90
2022-09-17T02:03:08.508Z,8.70
2022-09-17T02:05:50.232Z,8.80
2022-09-17T02:08:55.053Z,8.70
2022-09-17T02:11:22.621Z,8.60
2022-09-17T02:14:10.257Z,8.70
2022-09-17T02:16:54.282Z,8.80
2022-09-17T02:19:27.410Z,8.80
2022-09-17T02:25:12.321Z,8.70
2022-09-17T02:28:08.221Z,8.70
2022-09-17T02:30:45.143Z,8.70
2022-09-17T02:33:20.330Z,8.70
2022-09-17T02:35:58.126Z,8.70
2022-09-17T02:38:30.974Z,8.70
2022-09-17T02:41:26.057Z,8.70
2022-09-17T02:44:18.495Z,8.70
2022-09-17T02:47:03.228Z,8.70
2022-09-17T02:50:02.733Z,8.60
2022-09-17T02:53:12.785Z,8.60
2022-09-17T02:55:58.485Z,8.50
2022-09-17T02:58:59.635Z,8.50
2022-09-17T03:01:42.044Z,8.50
2022-09-17T03:04:17.266Z,8.50
2022-09-17T03:06:47.458Z,8.60
2022-09-17T03:09:31.093Z,8.60
2022-09-17T03:11:58.405Z,8.60
2022-09-17T03:14:25.242Z,8.50
2022-09-17T03:17:01.575Z,8.40
2022-09-17T03:19:38.289Z,8.40
2022-09-17T03:22:24.288Z,8.40
2022-09-17T03:24:59.994Z,8.40
2022-09-17T03:27:27.608Z,8.30
2022-09-17T03:29:57.846Z,8.20
2022-09-17T03:32:32.288Z,8.20
2022-09-17T03:35:01.940Z,8.30
2022-09-17T03:37:32.874Z,8.30
2022-09-17T03:42:42.088Z,8.30
2022-09-17T03:45:18.503Z,8.30
2022-09-17T03:47:46.886Z,8.20
2022-09-17T03:50:27.493Z,8.40
2022-09-17T03:52:54.898Z,8.40
2022-09-17T03:55:21.684Z,8.40
2022-09-17T04:00:53.427Z,8.40
2022-09-17T04:03:21.437Z,8.30
2022-09-17T04:05:48.375Z,8.20
2022-09-17T04:08:15.517Z,8.20
2022-09-17T04:10:42.282Z,8.20
2022-09-17T04:13:12.834Z,8.10
2022-09-17T04:15:46.138Z,8.20
2022-09-17T04:18:14.196Z,8.20
2022-09-17T04:20:40.883Z,8.20
2022-09-17T04:23:08.183Z,8.10
2022-09-17T04:25:34.983Z,8.00
2022-09-17T04:28:02.407Z,8.10
2022-09-17T04:30:29.589Z,8.10
2022-09-17T04:32:57.045Z,8.10
2022-09-17T04:35:24.253Z,8.20
2022-09-17T04:38:02.477Z,8.20
2022-09-17T04:40:29.760Z,8.20
2022-09-17T04:43:12.761Z,8.20
2022-09-17T04:45:40.032Z,8.20
2022-09-17T04:48:07.536Z,8.20
2022-09-17T04:50:34.559Z,8.20
2022-09-17T04:53:01.839Z,8.30
2022-09-17T04:55:29.004Z,8.30
2022-09-17T04:57:56.267Z,8.30
2022-09-17T05:00:24.273Z,8.30
2022-09-17T05:02:54.871Z,8.40
2022-09-17T05:05:22.324Z,8.30
2022-09-17T05:11:15.333Z,8.30
2022-09-17T05:14:07.423Z,8.30
2022-09-17T05:16:34.579Z,8.40
2022-09-17T05:19:01.968Z,8.30
2022-09-17T05:21:29.630Z,8.20
2022-09-17T05:23:56.554Z,8.20
2022-09-17T05:26:23.812Z,8.10
2022-09-17T05:28:50.829Z,7.90
2022-09-17T05:31:18.105Z,7.90
2022-09-17T05:33:54.019Z,7.90
2022-09-17T05:36:26.233Z,7.90
2022-09-17T05:38:52.877Z,8.00
2022-09-17T05:41:20.247Z,8.00
2022-09-17T05:43:47.038Z,8.10
2022-09-17T05:46:14.330Z,8.20
2022-09-17T05:48:41.307Z,8.20
2022-09-17T05:51:08.506Z,8.20
2022-09-17T05:53:35.145Z,8.30
2022-09-17T05:56:02.476Z,8.40
2022-09-17T05:58:29.663Z,8.40
2022-09-17T06:01:00.562Z,8.30
2022-09-17T06:03:27.203Z,8.40
2022-09-17T06:05:59.110Z,8.30
2022-09-17T06:08:27.795Z,8.40
2022-09-17T06:11:01.605Z,8.40
2022-09-17T06:13:29.370Z,8.50
2022-09-17T06:15:56.687Z,8.60
2022-09-17T06:18:23.496Z,8.50
2022-09-17T06:20:59.290Z,8.60
2022-09-17T06:23:26.400Z,8.60
2022-09-17T06:26:00.257Z,8.70
2022-09-17T06:28:28.187Z,8.70
2022-09-17T06:30:57.493Z,8.70
2022-09-17T06:33:24.360Z,8.70
2022-09-17T06:35:58.131Z,8.60
2022-09-17T06:38:24.831Z,8.60
2022-09-17T06:40:52.747Z,8.60
2022-09-17T06:43:20.786Z,8.60
2022-09-17T06:46:06.871Z,8.60
2022-09-17T06:48:34.921Z,8.60
2022-09-17T06:51:04.611Z,8.60
2022-09-17T06:53:31.829Z,8.60
2022-09-17T06:56:05.863Z,8.70
2022-09-17T06:58:34.414Z,8.70
2022-09-17T07:01:02.842Z,8.80
2022-09-17T07:03:31.435Z,8.90
2022-09-17T07:05:58.981Z,9.00
2022-09-17T07:08:28.633Z,9.00
2022-09-17T07:10:56.860Z,9.10
2022-09-17T07:13:24.048Z,9.10
2022-09-17T07:15:56.366Z,9.10
2022-09-17T07:18:23.440Z,9.10
2022-09-17T07:21:10.344Z,9.00
2022-09-17T07:23:37.663Z,9.00
2022-09-17T07:26:07.303Z,9.00
2022-09-17T07:28:34.781Z,9.10
2022-09-17T07:31:05.780Z,9.00
2022-09-17T07:33:34.009Z,9.00
2022-09-17T07:36:03.052Z,9.00
2022-09-17T07:38:31.590Z,9.00
2022-09-17T07:41:04.225Z,9.10
2022-09-17T07:43:33.401Z,9.20
2022-09-17T07:46:02.627Z,9.20
2022-09-17T07:48:31.164Z,9.20
2022-09-17T07:50:58.336Z,9.20
2022-09-17T07:53:25.257Z,9.20
2022-09-17T07:55:57.112Z,9.20
2022-09-17T07:58:28.552Z,9.30
2022-09-17T08:01:03.510Z,9.40
2022-09-17T08:03:31.043Z,9.40
2022-09-17T08:06:09.891Z,9.50
2022-09-17T08:08:38.363Z,9.60
2022-09-17T08:11:13.986Z,9.60
2022-09-17T08:13:41.369Z,9.60
2022-09-17T08:16:13.594Z,9.60
2022-09-17T08:18:41.617Z,9.70
2022-09-17T08:21:11.244Z,9.90
2022-09-17T08:23:40.758Z,10.10
2022-09-17T08:26:12.140Z,10.10
2022-09-17T08:28:39.216Z,10.10
2022-09-17T08:31:08.619Z,10.40
2022-09-17T08:33:40.503Z,10.40
2022-09-17T08:36:10.243Z,10.70
2022-09-17T08:38:38.784Z,10.70
2022-09-17T08:41:11.947Z,10.80
2022-09-17T08:44:10.338Z,10.80
2022-09-17T08:46:48.315Z,10.70
2022-09-17T08:49:34.750Z,10.60
2022-09-17T08:52:12.072Z,10.40
2022-09-17T08:55:12.076Z,9.80
2022-09-17T08:57:58.532Z,9.70
2022-09-17T09:00:26.031Z,9.50
2022-09-17T09:03:05.187Z,8.80
2022-09-17T09:05:43.083Z,8.80
2022-09-17T09:08:21.043Z,8.60
2022-09-17T09:10:55.760Z,9.10
2022-09-17T09:13:28.893Z,8.80
2022-09-17T09:16:02.919Z,9.00
2022-09-17T09:18:35.682Z,9.00
2022-09-17T09:21:09.552Z,8.90
2022-09-17T09:23:59.261Z,8.90
2022-09-17T09:27:03.737Z,8.90
2022-09-17T09:29:30.832Z,9.10
2022-09-17T09:31:57.500Z,9.30
2022-09-17T09:34:27.698Z,9.20
2022-09-17T09:37:21.880Z,9.50
2022-09-17T09:39:53.148Z,9.40
2022-09-17T09:42:27.527Z,9.30
2022-09-17T09:44:56.561Z,9.40
2022-09-17T09:47:29.766Z,9.50
2022-09-17T09:50:02.278Z,9.70
2022-09-17T09:53:00.391Z,9.80
2022-09-17T09:55:46.209Z,10.00
2022-09-17T09:58:22.498Z,10.10
2022-09-17T10:00:49.585Z,10.20
2022-09-17T10:03:28.842Z,10.20
2022-09-17T10:05:59.118Z,9.80
2022-09-17T10:08:27.424Z,9.80
2022-09-17T10:11:20.930Z,10.10
2022-09-17T10:13:47.951Z,10.30
2022-09-17T10:16:18.906Z,10.40
2022-09-17T10:18:47.590Z,10.50
2022-09-17T10:21:42.445Z,10.70
2022-09-17T10:24:36.701Z,10.60
2022-09-17T10:27:12.832Z,10.60
2022-09-17T10:29:44.632Z,10.60
2022-09-17T10:32:16.774Z,10.70
2022-09-17T10:34:59.618Z,10.80
2022-09-17T10:37:53.212Z,10.60
2022-09-17T10:40:20.338Z,10.90
2022-09-17T10:43:11.090Z,11.10
2022-09-17T10:45:42.404Z,10.90
2022-09-17T10:48:16.834Z,10.80
2022-09-17T10:50:50.652Z,10.60
2022-09-17T10:53:19.901Z,10.40
2022-09-17T10:56:19.738Z,10.10
2022-09-17T10:59:39.765Z,10.10
2022-09-17T11:02:34.405Z,10.10
2022-09-17T11:05:14.907Z,9.90
2022-09-17T11:07:57.797Z,9.60
2022-09-17T11:10:35.692Z,9.90
2022-09-17T11:13:37.138Z,9.90
2022-09-17T11:16:18.799Z,9.80
2022-09-17T11:18:51.751Z,10.10
2022-09-17T11:21:33.144Z,10.20
2022-09-17T11:24:49.107Z,10.40
2022-09-17T11:27:21.742Z,10.90
2022-09-17T11:30:05.878Z,10.90
2022-09-17T11:32:50.963Z,10.80
2022-09-17T11:35:23.167Z,10.00
2022-09-17T11:37:55.552Z,9.50
2022-09-17T11:40:59.958Z,9.70
2022-09-17T11:43:29.720Z,10.30
2022-09-17T11:46:24.553Z,11.30
2022-09-17T11:48:59.708Z,11.60
2022-09-17T11:51:35.797Z,11.90
2022-09-17T11:54:08.910Z,11.60
2022-09-17T11:56:44.896Z,11.10
2022-09-17T11:59:41.705Z,10.90
2022-09-17T12:02:22.924Z,10.90
2022-09-17T12:05:08.369Z,10.80
2022-09-17T12:08:13.850Z,10.30
2022-09-17T12:11:07.655Z,8.80
2022-09-17T12:13:58.880Z,8.70
2022-09-17T12:16:44.093Z,8.30
2022-09-17T12:19:26.506Z,8.60
2022-09-17T12:22:01.916Z,9.20
2022-09-17T12:24:30.610Z,9.20
2022-09-17T12:27:04.700Z,9.30
2022-09-17T12:29:50.675Z,9.60
2022-09-17T12:32:32.830Z,9.90
2022-09-17T12:35:05.887Z,9.70
2022-09-17T12:37:38.059Z,9.50
2022-09-17T12:40:19.065Z,9.70
2022-09-17T12:43:06.089Z,10.20
2022-09-17T12:46:00.909Z,10.50
2022-09-17T12:48:48.515Z,10.70
2022-09-17T12:51:37.244Z,10.90
2022-09-17T12:54:10.236Z,11.00
2022-09-17T12:56:43.122Z,11.00
2022-09-17T12:59:19.523Z,11.70
2022-09-17T13:01:54.821Z,11.30
2022-09-17T13:05:00.002Z,11.90
2022-09-17T13:07:49.940Z,11.60
2022-09-17T13:10:23.351Z,11.80
2022-09-17T13:12:57.043Z,11.70
2022-09-17T13:15:47.018Z,11.70
2022-09-17T13:18:27.132Z,12.00
2022-09-17T13:21:17.105Z,12.00
2022-09-17T13:23:46.969Z,11.00
2022-09-17T13:26:19.406Z,10.70
2022-09-17T13:28:50.877Z,9.90
2022-09-17T13:31:42.360Z,9.90
2022-09-17T13:34:18.935Z,8.80
2022-09-17T13:36:51.644Z,8.80
2022-09-17T13:39:40.228Z,9.20
2022-09-17T13:42:37.508Z,9.10
2022-09-17T13:45:13.152Z,9.20
2022-09-17T13:47:57.704Z,9.10
2022-09-17T13:50:29.052Z,9.20
2022-09-17T13:53:07.351Z,9.10
2022-09-17T13:55:40.444Z,9.00
2022-09-17T13:58:10.690Z,8.80
2022-09-17T14:00:59.331Z,9.00
2022-09-17T14:03:40.115Z,9.00
2022-09-17T14:06:27.325Z,9.00
2022-09-17T14:09:04.082Z,9.10
2022-09-17T14:11:41.933Z,9.20
2022-09-17T14:14:34.480Z,9.20
2022-09-17T14:17:05.143Z,9.30
2022-09-17T14:20:00.017Z,9.30
2022-09-17T14:22:33.990Z,9.40
2022-09-17T14:25:03.314Z,9.60
2022-09-17T14:27:55.413Z,9.80
2022-09-17T14:30:58.156Z,9.50
2022-09-17T14:33:34.970Z,9.70
2022-09-17T14:36:18.478Z,9.50
2022-09-17T14:38:54.573Z,9.40
2022-09-17T14:41:33.425Z,9.40
